Time;durP1;ratioP1;P1;durP2;ratioP2;P2;SDS_P1;SDS_P2;PMS_P1;PMS_P2;Temp;Humidity;BMP_temperature;BMP_pressure;BME280_temperature;BME280_humidity;BME280_pressure;Samples;Min_cycle;Max_cycle;Signal;HPM_P1;HPM_P2
2022/01/28 00:01:22;;;;;;;52.22;22.90;;;;;;;;;;5038948;28;20044;-75
2022/01/28 00:03:49;;;;;;;45.63;20.05;;;;;;;;;;5056433;28;20437;-75
2022/01/28 00:06:17;;;;;;;58.95;20.80;;;;;;;;;;5056575;28;20406;-76
2022/01/28 00:08:45;;;;;;;55.72;20.02;;;;;;;;;;5056630;28;20477;-75
2022/01/28 00:11:13;;;;;;;51.88;20.23;;;;;;;;;;5056483;28;20036;-75
2022/01/28 00:13:42;;;;;;;75.07;31.58;;;;;;;;;;5038883;28;20295;-76
2022/01/28 00:19:31;;;;;;;56.15;24.15;;;;;;;;;;4995178;28;20022;-75
2022/01/28 00:38:33;;;;;;;45.70;19.00;;;;;;;;;;4994801;28;20029;-75
2022/01/28 00:41:01;;;;;;;53.00;20.73;;;;;;;;;;4995037;28;20436;-75
2022/01/28 00:43:28;;;;;;;65.13;26.88;;;;;;;;;;4995010;28;20035;-76
2022/01/28 00:45:56;;;;;;;74.22;31.23;;;;;;;;;;4995058;28;20109;-76
2022/01/28 00:48:24;;;;;;;72.00;29.80;;;;;;;;;;4978782;28;20511;-76
2022/01/28 00:50:52;;;;;;;110.40;35.55;;;;;;;;;;4978384;28;20090;-75
2022/01/28 00:53:19;;;;;;;88.32;32.88;;;;;;;;;;4994385;28;20026;-75
2022/01/28 00:55:46;;;;;;;95.88;32.70;;;;;;;;;;5018786;28;20040;-75
2022/01/28 00:58:14;;;;;;;92.55;31.83;;;;;;;;;;5055863;28;20032;-75
2022/01/28 01:00:42;;;;;;;79.95;28.88;;;;;;;;;;5038175;28;20491;-75
2022/01/28 01:03:09;;;;;;;91.05;29.90;;;;;;;;;;5037969;28;20036;-75
2022/01/28 01:05:37;;;;;;;73.55;27.83;;;;;;;;;;5055620;28;20117;-75
2022/01/28 01:08:06;;;;;;;61.35;24.33;;;;;;;;;;5055599;28;20333;-75
2022/01/28 01:10:34;;;;;;;72.18;25.83;;;;;;;;;;5055634;28;20155;-75
2022/01/28 01:13:02;;;;;;;105.72;35.55;;;;;;;;;;5055625;28;20032;-74
2022/01/28 01:15:35;;;;;;;151.60;55.67;;;;;;;;;;5055689;28;20380;-75
2022/01/28 01:18:16;;;;;;;137.52;51.90;;;;;;;;;;5055649;28;20070;-75
2022/01/28 01:25:56;;;;;;;122.57;47.33;;;;;;;;;;5055511;28;20068;-75
2022/01/28 01:28:28;;;;;;;142.77;50.58;;;;;;;;;;5055260;28;20036;-75
2022/01/28 01:30:57;;;;;;;184.68;70.05;;;;;;;;;;5055331;28;20025;-74
2022/01/28 01:33:27;;;;;;;229.27;85.32;;;;;;;;;;5037835;28;20027;-74
2022/01/28 01:35:55;;;;;;;215.98;78.38;;;;;;;;;;5055579;28;20063;-78
2022/01/28 01:38:25;;;;;;;265.55;95.25;;;;;;;;;;5037913;28;20044;-74
2022/01/28 01:40:57;;;;;;;274.63;103.50;;;;;;;;;;5055323;28;20029;-72
2022/01/28 01:54:02;;;;;;;270.60;94.15;;;;;;;;;;5055293;28;20365;-78
2022/01/28 01:56:30;;;;;;;276.27;93.40;;;;;;;;;;5055270;28;20025;-78
2022/01/28 01:58:58;;;;;;;263.27;93.15;;;;;;;;;;5035293;28;20029;-78
2022/01/28 02:01:25;;;;;;;266.30;94.18;;;;;;;;;;5037440;28;20048;-78
2022/01/28 02:03:53;;;;;;;270.30;93.32;;;;;;;;;;5037429;28;20028;-74
2022/01/28 02:06:22;;;;;;;272.95;92.78;;;;;;;;;;5057933;28;20368;-72
2022/01/28 02:08:49;;;;;;;267.10;95.68;;;;;;;;;;5040814;28;20107;-73
2022/01/28 02:11:17;;;;;;;277.45;95.85;;;;;;;;;;5058573;28;20028;-79
2022/01/28 02:13:49;;;;;;;235.63;82.68;;;;;;;;;;5040755;28;20075;-74
2022/01/28 02:16:18;;;;;;;159.60;59.95;;;;;;;;;;5040844;28;20048;-75
2022/01/28 02:18:46;;;;;;;141.73;48.42;;;;;;;;;;5058584;28;20017;-74
2022/01/28 02:21:16;;;;;;;129.40;46.95;;;;;;;;;;5058370;28;20049;-74
2022/01/28 02:23:48;;;;;;;142.50;46.25;;;;;;;;;;5058451;28;20052;-75
2022/01/28 02:26:16;;;;;;;160.05;49.90;;;;;;;;;;5057980;28;20425;-74
2022/01/28 02:28:46;;;;;;;162.07;53.08;;;;;;;;;;5058255;28;20422;-75
2022/01/28 02:31:18;;;;;;;280.08;61.30;;;;;;;;;;5058207;28;20021;-74
2022/01/28 02:33:47;;;;;;;232.85;63.85;;;;;;;;;;5040504;28;20025;-74
2022/01/28 02:36:17;;;;;;;518.30;77.53;;;;;;;;;;5064294;28;20051;-78
2022/01/28 02:38:44;;;;;;;328.42;63.60;;;;;;;;;;5061370;28;20040;-75
2022/01/28 02:41:12;;;;;;;460.90;72.50;;;;;;;;;;5057860;28;20043;-75
2022/01/28 02:43:45;;;;;;;244.88;58.58;;;;;;;;;;5040324;28;20032;-73
2022/01/28 02:46:16;;;;;;;518.28;80.22;;;;;;;;;;5057975;28;20032;-73
2022/01/28 02:49:01;;;;;;;527.42;82.65;;;;;;;;;;5057896;28;20037;-73
2022/01/28 02:51:29;;;;;;;381.77;104.28;;;;;;;;;;5040225;28;20087;-70
2022/01/28 02:53:59;;;;;;;253.52;88.65;;;;;;;;;;5065098;28;20020;-76
2022/01/28 02:58:59;;;;;;;261.02;83.50;;;;;;;;;;5077490;28;20031;-78
2022/01/28 03:01:26;;;;;;;219.27;67.50;;;;;;;;;;5059977;28;20020;-78
2022/01/28 03:03:56;;;;;;;260.60;84.90;;;;;;;;;;5077639;28;20089;-74
2022/01/28 03:06:23;;;;;;;257.90;89.03;;;;;;;;;;5077552;28;20048;-76
2022/01/28 03:08:57;;;;;;;329.17;121.65;;;;;;;;;;5059716;28;20020;-72
2022/01/28 03:19:29;;;;;;;188.27;63.78;;;;;;;;;;5076879;28;20029;-74
2022/01/28 03:22:00;;;;;;;169.82;57.80;;;;;;;;;;5076985;28;20048;-77
2022/01/28 03:24:28;;;;;;;159.55;56.80;;;;;;;;;;5076845;28;20104;-79
2022/01/28 03:27:02;;;;;;;205.00;82.45;;;;;;;;;;5058916;28;20115;-71
2022/01/28 03:29:28;;;;;;;156.70;61.70;;;;;;;;;;5076768;28;20047;-81
2022/01/28 03:31:56;;;;;;;147.60;51.63;;;;;;;;;;5076678;28;20020;-77
2022/01/28 03:34:24;;;;;;;200.63;64.85;;;;;;;;;;5076800;28;20027;-77
2022/01/28 03:36:52;;;;;;;287.92;65.47;;;;;;;;;;5076748;28;20021;-75
2022/01/28 03:39:19;;;;;;;233.05;66.28;;;;;;;;;;5076454;28;20021;-74
2022/01/28 03:41:47;;;;;;;235.27;69.97;;;;;;;;;;5076528;28;20025;-74
2022/01/28 03:44:18;;;;;;;397.67;92.55;;;;;;;;;;5058661;28;20333;-72
2022/01/28 03:46:45;;;;;;;338.52;108.22;;;;;;;;;;5076243;28;20051;-72
2022/01/28 03:49:13;;;;;;;155.30;51.58;;;;;;;;;;5076241;28;20032;-73
2022/01/28 03:51:40;;;;;;;125.13;41.55;;;;;;;;;;5076245;28;20032;-76
2022/01/28 03:54:08;;;;;;;92.63;32.80;;;;;;;;;;5076211;28;20016;-74
2022/01/28 03:56:35;;;;;;;77.43;31.95;;;;;;;;;;5058543;28;20028;-76
2022/01/28 03:59:03;;;;;;;102.32;32.60;;;;;;;;;;5076044;28;20021;-74
2022/01/28 04:01:35;;;;;;;118.18;34.85;;;;;;;;;;5075884;28;20095;-75
2022/01/28 04:04:48;;;;;;;92.15;34.92;;;;;;;;;;5069966;28;20024;-73
2022/01/28 04:12:25;;;;;;;91.35;37.13;;;;;;;;;;5014349;28;20033;-77
2022/01/28 04:15:22;;;;;;;138.65;51.28;;;;;;;;;;5014009;28;20033;-71
2022/01/28 04:17:50;;;;;;;111.55;43.58;;;;;;;;;;4997879;28;20022;-77
2022/01/28 04:20:18;;;;;;;85.68;32.38;;;;;;;;;;5014249;28;20030;-77
2022/01/28 04:22:45;;;;;;;55.13;20.33;;;;;;;;;;5014123;28;20124;-73
2022/01/28 04:25:13;;;;;;;71.95;24.95;;;;;;;;;;5014280;28;20037;-75
2022/01/28 04:27:40;;;;;;;62.00;27.15;;;;;;;;;;4996549;28;20034;-76
2022/01/28 04:30:07;;;;;;;65.15;24.98;;;;;;;;;;5013833;28;20124;-76
2022/01/28 04:32:36;;;;;;;95.53;38.17;;;;;;;;;;5014024;28;20138;-73
2022/01/28 04:35:04;;;;;;;104.20;39.33;;;;;;;;;;4997451;28;20026;-71
2022/01/28 04:37:42;;;;;;;97.20;39.00;;;;;;;;;;5029594;28;20060;-74
2022/01/28 04:40:25;;;;;;;103.60;40.08;;;;;;;;;;5037650;28;20037;-75
2022/01/28 04:45:36;;;;;;;154.90;58.88;;;;;;;;;;5055533;28;20021;-77
2022/01/28 04:58:58;;;;;;;104.45;38.97;;;;;;;;;;4999466;28;20022;-74
2022/01/28 05:07:12;;;;;;;64.88;23.55;;;;;;;;;;5013736;28;20072;-74
2022/01/28 05:28:00;;;;;;;67.40;16.55;;;;;;;;;;5013517;28;20423;-78
2022/01/28 05:30:28;;;;;;;50.58;20.15;;;;;;;;;;5013316;28;20070;-76
2022/01/28 05:32:56;;;;;;;63.53;22.05;;;;;;;;;;5033415;28;20389;-76
2022/01/28 05:35:23;;;;;;;47.92;18.63;;;;;;;;;;5037376;28;20017;-77
2022/01/28 05:37:51;;;;;;;67.53;23.58;;;;;;;;;;5054883;28;20017;-77
2022/01/28 05:40:19;;;;;;;59.35;15.60;;;;;;;;;;5057687;28;20025;-78
2022/01/28 05:42:46;;;;;;;58.78;24.92;;;;;;;;;;5069104;28;20028;-78
2022/01/28 05:45:14;;;;;;;44.13;17.85;;;;;;;;;;5075444;28;20051;-79
2022/01/28 05:47:45;;;;;;;50.53;19.98;;;;;;;;;;5089254;28;20366;-80
2022/01/28 05:50:12;;;;;;;66.43;29.40;;;;;;;;;;5079055;28;20107;-78
2022/01/28 05:52:40;;;;;;;59.05;24.85;;;;;;;;;;5050961;28;20410;-79
2022/01/28 05:55:08;;;;;;;61.03;26.83;;;;;;;;;;5064603;28;20025;-77
2022/01/28 05:57:35;;;;;;;50.92;17.75;;;;;;;;;;5088870;28;20035;-76
2022/01/28 06:00:05;;;;;;;34.38;14.23;;;;;;;;;;5078976;28;20024;-77
2022/01/28 06:02:33;;;;;;;34.83;14.50;;;;;;;;;;5017912;28;20296;-80
2022/01/28 06:05:01;;;;;;;43.10;10.93;;;;;;;;;;5010827;28;20057;-79
2022/01/28 06:07:29;;;;;;;26.98;9.38;;;;;;;;;;5025348;28;20073;-80
2022/01/28 06:09:59;;;;;;;27.38;9.88;;;;;;;;;;5023303;28;20030;-79
2022/01/28 06:12:26;;;;;;;28.10;12.23;;;;;;;;;;5003431;28;20028;-79
2022/01/28 06:14:57;;;;;;;32.47;10.50;;;;;;;;;;5006105;28;20048;-77
2022/01/28 06:17:25;;;;;;;30.77;11.27;;;;;;;;;;4980402;28;20022;-78
2022/01/28 06:19:55;;;;;;;40.00;16.75;;;;;;;;;;4980548;28;20034;-78
2022/01/28 06:22:23;;;;;;;30.13;10.30;;;;;;;;;;4996744;28;20031;-78
2022/01/28 06:24:50;;;;;;;31.75;11.63;;;;;;;;;;4996863;28;20030;-77
2022/01/28 06:27:18;;;;;;;34.15;14.73;;;;;;;;;;4980266;28;20038;-79
2022/01/28 06:29:44;;;;;;;41.28;16.20;;;;;;;;;;4996381;28;20317;-76
2022/01/28 06:32:13;;;;;;;58.17;17.55;;;;;;;;;;4980293;28;20030;-78
2022/01/28 06:34:41;;;;;;;66.38;24.45;;;;;;;;;;4980142;28;20034;-80
2022/01/28 06:37:11;;;;;;;49.35;20.45;;;;;;;;;;4980210;28;20022;-78
2022/01/28 06:39:39;;;;;;;25.95;6.00;;;;;;;;;;5023655;28;20071;-81
2022/01/28 06:42:10;;;;;;;21.42;6.57;;;;;;;;;;5064175;28;20360;-79
2022/01/28 06:44:37;;;;;;;18.35;3.72;;;;;;;;;;5045363;28;20335;-80
2022/01/28 06:47:05;;;;;;;20.45;4.80;;;;;;;;;;5062598;28;20031;-79
2022/01/28 06:49:33;;;;;;;22.58;5.90;;;;;;;;;;5058743;28;20086;-79
2022/01/28 06:52:00;;;;;;;67.15;6.78;;;;;;;;;;5057308;28;20078;-79
2022/01/28 06:54:28;;;;;;;21.92;3.50;;;;;;;;;;5056796;28;20478;-78
2022/01/28 06:56:55;;;;;;;22.45;2.47;;;;;;;;;;5056884;28;20048;-80
2022/01/28 06:59:23;;;;;;;23.35;8.20;;;;;;;;;;5039422;28;20021;-78
2022/01/28 07:01:53;;;;;;;11.40;1.95;;;;;;;;;;5039472;28;20103;-80
2022/01/28 07:04:20;;;;;;;26.52;8.52;;;;;;;;;;5057012;28;20021;-80
2022/01/28 07:06:48;;;;;;;28.13;5.13;;;;;;;;;;5039388;28;20052;-78
2022/01/28 07:09:17;;;;;;;12.35;2.97;;;;;;;;;;5039521;28;20044;-78
2022/01/28 07:11:45;;;;;;;19.02;2.38;;;;;;;;;;5057284;28;20344;-79
2022/01/28 07:14:16;;;;;;;8.77;1.95;;;;;;;;;;5062445;28;20020;-76
2022/01/28 07:16:44;;;;;;;18.23;3.60;;;;;;;;;;5072377;28;20025;-78
2022/01/28 07:19:11;;;;;;;17.27;3.58;;;;;;;;;;5062329;28;20024;-81
2022/01/28 07:21:39;;;;;;;34.33;4.68;;;;;;;;;;5046861;28;20036;-80
2022/01/28 07:24:09;;;;;;;17.10;5.03;;;;;;;;;;5064353;28;20417;-80
2022/01/28 07:26:36;;;;;;;29.75;9.32;;;;;;;;;;5061122;28;20406;-84
2022/01/28 07:29:03;;;;;;;17.45;3.50;;;;;;;;;;5063847;28;20049;-78
2022/01/28 07:31:29;;;;;;;13.10;3.70;;;;;;;;;;5038686;28;20032;-78
2022/01/28 07:33:58;;;;;;;17.95;4.55;;;;;;;;;;5056651;28;20032;-78
2022/01/28 07:36:25;;;;;;;11.95;3.30;;;;;;;;;;5056617;28;20052;-78
2022/01/28 07:38:53;;;;;;;32.63;3.75;;;;;;;;;;5038902;28;20025;-77
2022/01/28 07:41:21;;;;;;;15.68;5.47;;;;;;;;;;5038861;28;20021;-78
2022/01/28 07:43:48;;;;;;;35.53;16.70;;;;;;;;;;5056561;28;20040;-74
2022/01/28 07:46:16;;;;;;;33.70;14.15;;;;;;;;;;5038278;28;20117;-74
2022/01/28 07:48:43;;;;;;;24.27;8.52;;;;;;;;;;5070800;28;20310;-76
2022/01/28 07:51:11;;;;;;;27.85;7.25;;;;;;;;;;5056276;28;20029;-76
2022/01/28 07:53:38;;;;;;;19.13;6.65;;;;;;;;;;5038405;28;20106;-73
2022/01/28 07:56:06;;;;;;;18.85;5.30;;;;;;;;;;5038693;28;20307;-76
2022/01/28 07:58:34;;;;;;;27.75;16.45;;;;;;;;;;5048848;28;20089;-76
2022/01/28 08:01:01;;;;;;;9.68;3.22;;;;;;;;;;5056171;28;20448;-81
2022/01/28 08:03:29;;;;;;;15.60;5.70;;;;;;;;;;5062131;28;20032;-77
2022/01/28 08:05:57;;;;;;;17.85;4.25;;;;;;;;;;5043870;28;20503;-80
2022/01/28 08:08:24;;;;;;;19.15;4.90;;;;;;;;;;5058405;28;20116;-79
2022/01/28 08:10:55;;;;;;;13.75;4.95;;;;;;;;;;5056057;28;20064;-77
2022/01/28 08:13:23;;;;;;;23.52;6.40;;;;;;;;;;5056415;28;20067;-79
2022/01/28 08:15:51;;;;;;;28.10;9.00;;;;;;;;;;5037656;28;20055;-80
2022/01/28 08:18:19;;;;;;;9.70;3.80;;;;;;;;;;5052429;28;20078;-78
2022/01/28 08:20:46;;;;;;;16.42;5.13;;;;;;;;;;5075738;28;20032;-76
2022/01/28 08:23:14;;;;;;;52.78;21.80;;;;;;;;;;5057591;28;20508;-74
2022/01/28 08:25:42;;;;;;;47.65;20.88;;;;;;;;;;5057794;28;20051;-74
2022/01/28 08:28:23;;;;;;;73.47;33.63;;;;;;;;;;5057382;28;20020;-78
2022/01/28 08:30:51;;;;;;;67.38;33.03;;;;;;;;;;5057589;28;20032;-72
2022/01/28 08:33:19;;;;;;;88.63;38.42;;;;;;;;;;5069719;28;20016;-73
2022/01/28 08:35:52;;;;;;;74.78;33.72;;;;;;;;;;5043425;28;20049;-70
2022/01/28 08:38:30;;;;;;;79.25;37.00;;;;;;;;;;5055381;28;20023;-70
2022/01/28 08:40:59;;;;;;;75.90;36.42;;;;;;;;;;5055247;28;20033;-71
2022/01/28 08:43:27;;;;;;;77.40;34.55;;;;;;;;;;5055326;28;20059;-72
2022/01/28 08:45:55;;;;;;;81.88;34.10;;;;;;;;;;5055509;28;20329;-73
2022/01/28 08:48:23;;;;;;;71.47;33.65;;;;;;;;;;5037484;28;20075;-72
2022/01/28 08:50:51;;;;;;;73.60;34.15;;;;;;;;;;5037430;28;20413;-72
2022/01/28 08:53:19;;;;;;;79.90;34.10;;;;;;;;;;5055422;28;20098;-77
2022/01/28 08:55:46;;;;;;;74.45;33.47;;;;;;;;;;5055254;28;20021;-79
2022/01/28 08:58:15;;;;;;;78.18;34.83;;;;;;;;;;5055049;28;20052;-79
2022/01/28 09:00:48;;;;;;;65.20;31.90;;;;;;;;;;5055324;28;20032;-76
2022/01/28 09:03:19;;;;;;;74.55;33.45;;;;;;;;;;5056802;28;20033;-81
2022/01/28 09:05:47;;;;;;;64.28;32.10;;;;;;;;;;5037371;28;20108;-78
2022/01/28 09:08:15;;;;;;;69.68;29.27;;;;;;;;;;5037409;28;20095;-70
2022/01/28 09:10:57;;;;;;;65.35;29.63;;;;;;;;;;5055005;28;20047;-76
2022/01/28 09:13:27;;;;;;;63.83;28.63;;;;;;;;;;5055774;28;20021;-78
2022/01/28 09:15:56;;;;;;;59.92;30.33;;;;;;;;;;5042240;28;20028;-73
2022/01/28 09:18:24;;;;;;;66.60;30.85;;;;;;;;;;5068598;28;20016;-73
2022/01/28 09:20:52;;;;;;;68.50;30.13;;;;;;;;;;5079230;28;20020;-75
2022/01/28 09:23:20;;;;;;;66.03;31.63;;;;;;;;;;5061491;28;20325;-70
2022/01/28 09:25:47;;;;;;;73.88;31.73;;;;;;;;;;5079383;28;20028;-76
2022/01/28 09:28:15;;;;;;;68.63;32.38;;;;;;;;;;5061105;28;20024;-71
2022/01/28 09:30:42;;;;;;;80.82;32.17;;;;;;;;;;5047387;28;20342;-75
2022/01/28 09:33:10;;;;;;;73.05;32.78;;;;;;;;;;5041333;28;20447;-71
2022/01/28 09:35:37;;;;;;;74.35;31.05;;;;;;;;;;5045332;28;20090;-77
2022/01/28 09:38:05;;;;;;;67.75;28.35;;;;;;;;;;5059823;28;20024;-78
2022/01/28 09:40:33;;;;;;;50.70;22.63;;;;;;;;;;5078923;28;20021;-75
2022/01/28 09:43:03;;;;;;;57.55;24.55;;;;;;;;;;5061950;28;20089;-79
2022/01/28 09:45:30;;;;;;;43.63;20.25;;;;;;;;;;5058698;28;20051;-76
2022/01/28 09:47:59;;;;;;;49.80;20.08;;;;;;;;;;5058621;28;20031;-76
2022/01/28 09:50:28;;;;;;;54.00;24.13;;;;;;;;;;5040935;28;20372;-79
2022/01/28 09:52:56;;;;;;;68.40;26.92;;;;;;;;;;5040739;28;20116;-78
2022/01/28 09:55:25;;;;;;;75.18;26.95;;;;;;;;;;5058511;28;20024;-78
2022/01/28 09:58:02;;;;;;;76.72;29.95;;;;;;;;;;5042110;28;20028;-77
2022/01/28 10:00:30;;;;;;;78.75;27.05;;;;;;;;;;5018455;28;20460;-80
2022/01/28 10:03:08;;;;;;;62.75;26.20;;;;;;;;;;5064410;28;20043;-79
2022/01/28 10:05:45;;;;;;;89.68;36.63;;;;;;;;;;5080778;28;20047;-79
2022/01/28 10:08:25;;;;;;;80.80;34.63;;;;;;;;;;5087640;28;20021;-78
2022/01/28 10:11:11;;;;;;;93.93;38.47;;;;;;;;;;5085306;28;20024;-80
2022/01/28 10:13:54;;;;;;;93.20;38.67;;;;;;;;;;5086071;28;20040;-81
2022/01/28 10:16:29;;;;;;;78.30;35.58;;;;;;;;;;5069450;28;20021;-80
2022/01/28 10:19:00;;;;;;;85.20;38.15;;;;;;;;;;5040599;28;20112;-74
2022/01/28 10:21:43;;;;;;;85.28;35.90;;;;;;;;;;5048101;28;20032;-73
2022/01/28 10:24:20;;;;;;;81.90;37.88;;;;;;;;;;5078496;28;20103;-79
2022/01/28 10:26:51;;;;;;;90.60;39.67;;;;;;;;;;5059184;28;20032;-77
2022/01/28 10:29:17;;;;;;;86.57;39.15;;;;;;;;;;5056389;28;20055;-77
2022/01/28 10:31:57;;;;;;;83.28;38.53;;;;;;;;;;5048966;28;20082;-75
2022/01/28 10:34:34;;;;;;;87.32;42.97;;;;;;;;;;5057969;28;20020;-74
2022/01/28 10:37:18;;;;;;;91.95;44.20;;;;;;;;;;5042568;28;20021;-76
2022/01/28 10:39:52;;;;;;;89.43;39.17;;;;;;;;;;5049360;28;20033;-75
2022/01/28 10:42:35;;;;;;;85.32;37.75;;;;;;;;;;5068672;28;20032;-73
2022/01/28 10:45:17;;;;;;;86.13;39.33;;;;;;;;;;5077206;28;20021;-74
2022/01/28 10:47:50;;;;;;;91.82;40.40;;;;;;;;;;5060282;28;20086;-73
2022/01/28 10:50:19;;;;;;;89.93;40.33;;;;;;;;;;5077957;28;20033;-72
2022/01/28 10:52:57;;;;;;;91.50;44.15;;;;;;;;;;5059982;28;20025;-73
2022/01/28 10:55:24;;;;;;;94.47;45.35;;;;;;;;;;5077805;28;20024;-72
2022/01/28 10:58:28;;;;;;;95.57;41.95;;;;;;;;;;5060047;28;20025;-79
2022/01/28 11:00:59;;;;;;;89.40;41.47;;;;;;;;;;4996517;28;20429;-73
2022/01/28 11:03:28;;;;;;;92.55;39.90;;;;;;;;;;4980030;28;20334;-72
2022/01/28 11:05:59;;;;;;;97.05;40.45;;;;;;;;;;4980040;28;20125;-73
2022/01/28 11:08:29;;;;;;;81.45;35.72;;;;;;;;;;4969071;28;20088;-74
2022/01/28 11:10:57;;;;;;;83.53;36.80;;;;;;;;;;4996085;28;20442;-73
2022/01/28 11:13:24;;;;;;;79.57;35.75;;;;;;;;;;4996222;28;20439;-73
2022/01/28 11:15:52;;;;;;;77.30;34.28;;;;;;;;;;4996145;28;20038;-73
2022/01/28 11:18:20;;;;;;;73.50;33.30;;;;;;;;;;4996180;28;20065;-74
2022/01/28 11:20:50;;;;;;;76.75;33.72;;;;;;;;;;4996132;28;20041;-74
2022/01/28 11:23:36;;;;;;;81.25;35.53;;;;;;;;;;4996011;28;20030;-73
2022/01/28 11:26:18;;;;;;;79.78;34.72;;;;;;;;;;4979523;28;20053;-73
2022/01/28 11:28:46;;;;;;;81.20;34.67;;;;;;;;;;4995572;28;20098;-75
2022/01/28 11:31:14;;;;;;;82.50;34.58;;;;;;;;;;4995676;28;20090;-74
2022/01/28 11:33:49;;;;;;;93.93;39.17;;;;;;;;;;4979870;28;20027;-74
2022/01/28 11:36:37;;;;;;;89.95;40.17;;;;;;;;;;5035594;28;20025;-73
2022/01/28 11:39:09;;;;;;;92.15;40.72;;;;;;;;;;5036878;28;20022;-73
2022/01/28 11:41:37;;;;;;;100.63;40.70;;;;;;;;;;5036516;28;20033;-73
2022/01/28 11:44:05;;;;;;;94.68;41.53;;;;;;;;;;5036448;28;20021;-74
2022/01/28 11:46:38;;;;;;;104.05;41.95;;;;;;;;;;5034897;28;20032;-74
2022/01/28 11:49:11;;;;;;;98.97;44.00;;;;;;;;;;5036485;28;20029;-74
2022/01/28 11:51:41;;;;;;;122.65;47.65;;;;;;;;;;5036241;28;20415;-74
2022/01/28 11:54:13;;;;;;;114.68;51.22;;;;;;;;;;5036127;28;20025;-74
2022/01/28 11:57:04;;;;;;;112.18;51.78;;;;;;;;;;5036303;28;20437;-74
2022/01/28 11:59:33;;;;;;;111.65;52.72;;;;;;;;;;5034966;28;20037;-74
2022/01/28 12:02:02;;;;;;;120.40;54.80;;;;;;;;;;5036002;28;20017;-73
2022/01/28 12:04:34;;;;;;;141.13;58.50;;;;;;;;;;5035025;28;20025;-73
2022/01/28 12:07:05;;;;;;;133.50;58.17;;;;;;;;;;5036116;28;20021;-73
2022/01/28 12:09:34;;;;;;;139.93;60.90;;;;;;;;;;5035344;28;20021;-75
2022/01/28 12:12:02;;;;;;;142.75;63.50;;;;;;;;;;5035267;28;20422;-74
2022/01/28 12:14:49;;;;;;;155.10;65.43;;;;;;;;;;5035641;28;20037;-74
2022/01/28 12:17:36;;;;;;;145.57;66.43;;;;;;;;;;5036095;28;20018;-73
2022/01/28 12:20:25;;;;;;;161.75;69.45;;;;;;;;;;5036560;28;20026;-74
2022/01/28 12:23:09;;;;;;;152.38;69.65;;;;;;;;;;5035497;28;20046;-73
2022/01/28 12:25:42;;;;;;;163.40;67.78;;;;;;;;;;5036523;28;20079;-74
2022/01/28 12:28:46;;;;;;;166.38;69.78;;;;;;;;;;5035400;28;20025;-73
2022/01/28 12:31:23;;;;;;;155.18;68.97;;;;;;;;;;5035214;28;20041;-75
2022/01/28 12:34:05;;;;;;;154.73;68.70;;;;;;;;;;5036278;28;20095;-74
2022/01/28 12:36:37;;;;;;;159.50;70.75;;;;;;;;;;5035397;28;20342;-73
2022/01/28 12:41:41;;;;;;;175.63;75.95;;;;;;;;;;5035888;28;20032;-73
2022/01/28 12:44:11;;;;;;;169.75;79.75;;;;;;;;;;5034838;28;20112;-73
2022/01/28 12:46:39;;;;;;;183.10;83.57;;;;;;;;;;5034985;28;20025;-73
2022/01/28 12:49:09;;;;;;;186.60;83.82;;;;;;;;;;5035216;28;20025;-72
2022/01/28 12:51:43;;;;;;;186.63;80.13;;;;;;;;;;5035640;28;20469;-73
2022/01/28 12:54:11;;;;;;;175.80;80.47;;;;;;;;;;5035627;28;20036;-73
2022/01/28 12:56:43;;;;;;;176.48;78.85;;;;;;;;;;5034261;28;20021;-72
2022/01/28 12:59:21;;;;;;;164.88;74.63;;;;;;;;;;5035504;28;20028;-72
2022/01/28 13:01:55;;;;;;;166.57;75.53;;;;;;;;;;5035463;28;20025;-73
2022/01/28 13:04:35;;;;;;;156.88;71.72;;;;;;;;;;5035679;28;20106;-72
2022/01/28 13:10:10;;;;;;;129.05;63.03;;;;;;;;;;4994344;28;20305;-73
2022/01/28 13:12:38;;;;;;;125.47;61.10;;;;;;;;;;4994252;28;20109;-74
2022/01/28 13:18:09;;;;;;;139.07;60.45;;;;;;;;;;4994384;28;20353;-73
2022/01/28 13:20:39;;;;;;;138.13;60.70;;;;;;;;;;4994082;28;20133;-73
2022/01/28 13:23:07;;;;;;;131.32;59.53;;;;;;;;;;4994158;28;20066;-73
2022/01/28 13:25:35;;;;;;;135.27;60.28;;;;;;;;;;4994162;28;20026;-73
2022/01/28 13:28:11;;;;;;;130.27;60.47;;;;;;;;;;4994097;28;20072;-73
2022/01/28 13:30:41;;;;;;;146.80;64.80;;;;;;;;;;4993997;28;20061;-74
2022/01/28 13:33:10;;;;;;;149.10;67.55;;;;;;;;;;4994268;28;20034;-73
2022/01/28 13:35:39;;;;;;;142.93;64.60;;;;;;;;;;4994159;28;20073;-73
2022/01/28 13:38:17;;;;;;;138.57;65.93;;;;;;;;;;4994217;28;20165;-72
2022/01/28 13:40:44;;;;;;;150.38;71.80;;;;;;;;;;5002775;28;20037;-73
2022/01/28 13:43:15;;;;;;;153.77;70.65;;;;;;;;;;5013799;28;20431;-74
2022/01/28 13:45:58;;;;;;;158.98;73.28;;;;;;;;;;5013876;28;20030;-73
2022/01/28 13:48:41;;;;;;;154.15;72.93;;;;;;;;;;5013851;28;20030;-73
2022/01/28 13:51:13;;;;;;;160.45;73.78;;;;;;;;;;4997271;28;20096;-72
2022/01/28 13:56:36;;;;;;;193.93;85.05;;;;;;;;;;5035280;28;20033;-72
2022/01/28 13:59:14;;;;;;;183.20;85.40;;;;;;;;;;5034142;28;20022;-73
2022/01/28 14:01:45;;;;;;;173.82;79.45;;;;;;;;;;5037727;28;20029;-73
2022/01/28 14:04:27;;;;;;;178.35;80.65;;;;;;;;;;5039020;28;20029;-72
2022/01/28 14:07:12;;;;;;;176.35;80.57;;;;;;;;;;5037777;28;20036;-73
2022/01/28 14:09:50;;;;;;;178.60;80.35;;;;;;;;;;5038646;28;20056;-74
2022/01/28 14:12:27;;;;;;;172.50;76.65;;;;;;;;;;5037524;28;20036;-73
2022/01/28 14:15:08;;;;;;;191.18;82.43;;;;;;;;;;5038833;28;20476;-73
2022/01/28 14:17:35;;;;;;;194.55;82.47;;;;;;;;;;5038675;28;20026;-73
2022/01/28 14:20:03;;;;;;;193.90;88.10;;;;;;;;;;5038759;28;20029;-73
2022/01/28 14:22:31;;;;;;;207.60;89.15;;;;;;;;;;5038524;28;20373;-72
2022/01/28 14:24:58;;;;;;;192.80;84.72;;;;;;;;;;5038461;28;20029;-73
2022/01/28 14:30:03;;;;;;;345.95;154.48;;;;;;;;;;5050282;28;20048;-73
2022/01/28 14:32:29;;;;;;;272.92;127.03;;;;;;;;;;5059451;28;20070;-73
2022/01/28 14:34:57;;;;;;;292.30;122.80;;;;;;;;;;5058417;28;20017;-73
2022/01/28 14:37:30;;;;;;;300.63;133.77;;;;;;;;;;5058256;28;20024;-74
2022/01/28 14:39:58;;;;;;;285.35;132.05;;;;;;;;;;5058032;28;20036;-73
2022/01/28 14:42:25;;;;;;;317.73;141.70;;;;;;;;;;5058327;28;20122;-74
2022/01/28 14:44:53;;;;;;;339.17;146.10;;;;;;;;;;5040368;28;20108;-75
2022/01/28 14:47:21;;;;;;;346.33;149.38;;;;;;;;;;5040181;28;20047;-74
2022/01/28 14:49:48;;;;;;;389.52;174.23;;;;;;;;;;5040122;28;20029;-72
2022/01/28 14:52:20;;;;;;;386.98;175.32;;;;;;;;;;5040389;28;20028;-72
2022/01/28 14:54:48;;;;;;;416.95;188.65;;;;;;;;;;5058073;28;20028;-73
2022/01/28 14:57:16;;;;;;;418.90;192.98;;;;;;;;;;5057991;28;20083;-73
2022/01/28 14:59:46;;;;;;;394.27;173.73;;;;;;;;;;5057824;28;20433;-72
2022/01/28 15:02:21;;;;;;;360.42;157.07;;;;;;;;;;5057894;28;20080;-72
2022/01/28 15:04:49;;;;;;;367.17;166.40;;;;;;;;;;5057809;28;20021;-72
2022/01/28 15:07:18;;;;;;;367.55;160.55;;;;;;;;;;5057336;28;20067;-72
2022/01/28 15:09:51;;;;;;;345.05;153.65;;;;;;;;;;5057523;28;20045;-73
2022/01/28 15:12:19;;;;;;;295.05;134.63;;;;;;;;;;5057274;28;20017;-72
2022/01/28 15:14:46;;;;;;;286.08;126.57;;;;;;;;;;5039843;28;20029;-73
2022/01/28 15:17:17;;;;;;;277.77;123.30;;;;;;;;;;5040070;28;20024;-72
2022/01/28 15:19:45;;;;;;;270.20;124.60;;;;;;;;;;5057288;28;20100;-73
2022/01/28 15:22:13;;;;;;;245.70;108.53;;;;;;;;;;5057447;28;20110;-73
2022/01/28 15:24:40;;;;;;;273.17;116.70;;;;;;;;;;5057334;28;20027;-74
2022/01/28 15:27:09;;;;;;;251.45;108.55;;;;;;;;;;5057397;28;20024;-73
2022/01/28 15:29:48;;;;;;;225.35;101.68;;;;;;;;;;5057077;28;20052;-74
2022/01/28 15:37:40;;;;;;;214.15;94.47;;;;;;;;;;5057158;28;20021;-74
2022/01/28 15:40:11;;;;;;;206.70;95.80;;;;;;;;;;5057142;28;20113;-74
2022/01/28 15:42:38;;;;;;;222.90;99.47;;;;;;;;;;5056921;28;20029;-72
2022/01/28 15:45:06;;;;;;;234.25;100.15;;;;;;;;;;5056893;28;20032;-72
2022/01/28 15:47:33;;;;;;;222.43;98.47;;;;;;;;;;5039255;28;20108;-73
2022/01/28 15:50:01;;;;;;;213.88;95.25;;;;;;;;;;5056877;28;20050;-72
2022/01/28 15:52:30;;;;;;;418.10;164.45;;;;;;;;;;5039016;28;20025;-72
2022/01/28 15:54:57;;;;;;;339.83;130.93;;;;;;;;;;5039104;28;20032;-72
2022/01/28 15:57:25;;;;;;;317.55;137.95;;;;;;;;;;5038900;28;20028;-74
2022/01/28 15:59:53;;;;;;;253.85;112.93;;;;;;;;;;5039033;28;20483;-74
2022/01/28 16:02:20;;;;;;;210.77;90.75;;;;;;;;;;5039017;28;20036;-73
2022/01/28 16:04:48;;;;;;;232.38;103.57;;;;;;;;;;5056520;28;20032;-74
2022/01/28 16:07:17;;;;;;;243.15;108.07;;;;;;;;;;5038783;28;20040;-74
2022/01/28 16:09:53;;;;;;;218.88;97.75;;;;;;;;;;5038799;28;20041;-74
2022/01/28 16:17:48;;;;;;;184.70;79.80;;;;;;;;;;4995236;28;20026;-74
2022/01/28 16:20:15;;;;;;;178.13;75.68;;;;;;;;;;4995098;28;20089;-74
2022/01/28 16:22:43;;;;;;;163.40;69.55;;;;;;;;;;4978520;28;20030;-75
2022/01/28 16:25:11;;;;;;;134.15;57.80;;;;;;;;;;4978169;28;20030;-74